createdAt,value
2022-11-04T00:02:22.167Z,0.37
2022-11-04T00:04:51.321Z,0.01
2022-11-04T00:07:34.016Z,-0.08
2022-11-04T00:10:03.148Z,0.52
2022-11-04T00:12:32.622Z,0.51
2022-11-04T00:15:21.791Z,-0.08
2022-11-04T00:17:49.803Z,-0.67
2022-11-04T00:20:50.754Z,0.43
2022-11-04T00:23:36.986Z,0.57
2022-11-04T00:26:23.147Z,0.11
2022-11-04T00:28:54.726Z,-0.18
2022-11-04T00:31:40.897Z,0.56
2022-11-04T00:34:10.146Z,-0.22
2022-11-04T00:36:39.244Z,-0.02
2022-11-04T00:39:08.422Z,-0.57
2022-11-04T00:41:37.567Z,0.46
2022-11-04T00:44:08.294Z,-0.16
2022-11-04T00:46:37.501Z,0.38
2022-11-04T00:49:06.763Z,-0.63
2022-11-04T00:51:35.853Z,0.03
2022-11-04T00:54:05.257Z,0.30
2022-11-04T00:56:34.561Z,0.30
2022-11-04T00:59:03.695Z,-0.29
2022-11-04T01:01:34.521Z,0.27
2022-11-04T01:04:03.780Z,-0.34
2022-11-04T01:06:33.036Z,0.27
2022-11-04T01:09:03.755Z,0.19
2022-11-04T01:11:33.064Z,0.14
2022-11-04T01:14:02.680Z,-0.32
2022-11-04T01:16:33.817Z,-0.15
2022-11-04T01:19:03.183Z,-1.10
2022-11-04T01:21:32.321Z,-0.25
2022-11-04T01:24:02.292Z,-0.36
2022-11-04T01:26:32.226Z,-0.35
2022-11-04T01:29:01.901Z,-0.05
2022-11-04T01:31:33.616Z,-0.11
2022-11-04T01:34:02.720Z,0.13
2022-11-04T01:36:31.953Z,-0.44
2022-11-04T01:39:01.098Z,-0.09
2022-11-04T01:41:32.442Z,0.01
2022-11-04T01:44:02.653Z,0.13
2022-11-04T01:46:40.909Z,0.14
2022-11-04T01:49:25.355Z,0.16
2022-11-04T01:51:58.994Z,0.17
2022-11-04T01:54:29.045Z,-0.31
2022-11-04T01:57:00.169Z,0.23
2022-11-04T01:59:34.891Z,0.24
2022-11-04T02:02:06.075Z,-0.49
2022-11-04T02:04:35.720Z,0.29
2022-11-04T02:07:07.539Z,-0.65
2022-11-04T02:09:38.005Z,0.34
2022-11-04T02:12:24.787Z,0.11
2022-11-04T02:14:55.910Z,0.20
2022-11-04T02:17:44.197Z,0.03
2022-11-04T02:20:41.110Z,-0.21
2022-11-04T02:23:32.133Z,-0.36
2022-11-04T02:26:52.937Z,0.34
2022-11-04T02:29:43.013Z,-0.68
2022-11-04T02:32:18.898Z,-0.21
2022-11-04T02:34:52.935Z,0.49
2022-11-04T02:37:33.701Z,0.57
2022-11-04T02:40:13.651Z,0.50
2022-11-04T02:42:49.656Z,0.05
2022-11-04T02:45:22.428Z,0.73
2022-11-04T02:47:59.412Z,0.63
2022-11-04T02:50:35.194Z,0.15
2022-11-04T02:53:09.920Z,-0.30
2022-11-04T02:55:45.103Z,0.46
2022-11-04T02:58:19.237Z,1.04
2022-11-04T03:00:53.228Z,0.42
2022-11-04T03:03:27.505Z,0.49
2022-11-04T03:05:59.369Z,0.69
2022-11-04T03:08:33.590Z,0.68
2022-11-04T03:11:06.717Z,0.80
2022-11-04T03:13:42.277Z,0.82
2022-11-04T03:16:16.416Z,1.25
2022-11-04T03:18:56.733Z,1.34
2022-11-04T03:21:28.263Z,1.54
2022-11-04T03:23:57.741Z,0.94
2022-11-04T03:26:31.663Z,1.55
2022-11-04T03:29:12.080Z,1.52
2022-11-04T03:31:49.368Z,1.72
2022-11-04T03:34:18.528Z,1.76
2022-11-04T03:36:47.850Z,1.79
2022-11-04T03:39:17.230Z,1.82
2022-11-04T03:41:52.469Z,1.29
2022-11-04T03:44:22.293Z,1.89
2022-11-04T03:46:54.557Z,1.90
2022-11-04T03:49:25.222Z,1.74
2022-11-04T03:51:55.003Z,1.68
2022-11-04T03:54:24.135Z,1.91
2022-11-04T03:57:18.840Z,1.06
2022-11-04T04:00:11.005Z,1.39
2022-11-04T04:03:09.323Z,2.01
2022-11-04T04:05:43.920Z,2.03
2022-11-04T04:08:21.651Z,1.52
2022-11-04T04:11:00.662Z,1.41
2022-11-04T04:13:44.523Z,1.73
2022-11-04T04:16:23.281Z,2.14
2022-11-04T04:19:00.040Z,2.16
2022-11-04T04:21:34.151Z,1.70
2022-11-04T04:24:25.044Z,1.69
2022-11-04T04:27:13.795Z,2.23
2022-11-04T04:29:46.319Z,2.27
2022-11-04T04:32:19.525Z,1.80
2022-11-04T04:35:28.959Z,2.30
2022-11-04T04:38:21.859Z,2.43
2022-11-04T04:41:15.013Z,2.36
2022-11-04T04:44:18.299Z,2.31
2022-11-04T04:47:14.912Z,2.59
2022-11-04T04:49:52.368Z,2.64
2022-11-04T04:52:25.275Z,2.54
2022-11-04T04:54:57.291Z,2.65
2022-11-04T04:57:27.689Z,2.75
2022-11-04T04:59:57.438Z,2.79
2022-11-04T05:02:26.926Z,2.84
2022-11-04T05:04:56.851Z,2.89
2022-11-04T05:07:30.455Z,2.80
2022-11-04T05:10:00.888Z,3.05
2022-11-04T05:12:50.865Z,3.14
2022-11-04T05:15:28.243Z,3.20
2022-11-04T05:17:59.211Z,3.29
2022-11-04T05:20:38.958Z,3.10
2022-11-04T05:23:12.711Z,3.54
2022-11-04T05:25:42.496Z,3.54
2022-11-04T05:28:12.185Z,3.70
2022-11-04T05:30:41.790Z,3.79
2022-11-04T05:33:11.517Z,3.84
2022-11-04T05:35:43.197Z,3.87
2022-11-04T05:38:13.882Z,3.87
2022-11-04T05:40:43.295Z,3.91
2022-11-04T05:43:14.540Z,3.95
2022-11-04T05:45:47.108Z,3.94
2022-11-04T05:48:19.853Z,3.55
2022-11-04T05:50:53.478Z,4.01
2022-11-04T05:53:29.806Z,3.92
2022-11-04T05:55:59.159Z,4.13
2022-11-04T05:58:30.860Z,4.11
2022-11-04T06:01:24.900Z,3.99
2022-11-04T06:03:54.547Z,3.98
2022-11-04T06:06:25.247Z,3.85
2022-11-04T06:09:02.548Z,3.75
2022-11-04T06:11:34.944Z,3.77
2022-11-04T06:14:18.562Z,3.78
2022-11-04T06:16:51.691Z,3.62
2022-11-04T06:19:20.849Z,3.78
2022-11-04T06:21:50.392Z,3.66
2022-11-04T06:24:21.164Z,3.89
2022-11-04T06:26:50.217Z,3.95
2022-11-04T06:29:24.903Z,3.97
2022-11-04T06:31:54.570Z,3.83
2022-11-04T06:34:26.324Z,3.99
2022-11-04T06:37:01.122Z,4.09
2022-11-04T06:39:36.996Z,3.91
2022-11-04T06:42:06.186Z,4.21
2022-11-04T06:44:37.603Z,3.68
2022-11-04T06:47:17.564Z,4.25
2022-11-04T06:49:52.820Z,4.20
2022-11-04T06:52:25.951Z,4.10
2022-11-04T06:54:56.615Z,3.90
2022-11-04T06:57:25.715Z,4.24
2022-11-04T06:59:54.802Z,4.32
2022-11-04T07:02:24.209Z,4.33
2022-11-04T07:04:54.964Z,3.96
2022-11-04T07:07:24.820Z,3.88
2022-11-04T07:10:00.214Z,4.20
2022-11-04T07:12:34.574Z,4.41
2022-11-04T07:15:06.864Z,4.35
2022-11-04T07:17:37.459Z,4.24
2022-11-04T07:20:07.536Z,4.37
2022-11-04T07:22:36.726Z,4.27
2022-11-04T07:25:10.569Z,4.14
2022-11-04T07:27:39.991Z,4.23
2022-11-04T07:30:10.397Z,4.24
2022-11-04T07:32:41.621Z,3.97
2022-11-04T07:35:11.821Z,3.72
2022-11-04T07:37:41.883Z,3.77
2022-11-04T07:40:15.802Z,3.29
2022-11-04T07:42:44.897Z,3.44
2022-11-04T07:45:13.983Z,3.23
2022-11-04T07:47:43.242Z,3.06
2022-11-04T07:50:15.646Z,3.07
2022-11-04T07:52:47.620Z,3.07
2022-11-04T07:55:19.004Z,3.32
2022-11-04T07:57:48.418Z,3.34
2022-11-04T08:00:18.642Z,3.48
2022-11-04T08:02:48.177Z,3.51
2022-11-04T08:05:24.356Z,3.49
2022-11-04T08:07:53.716Z,3.56
2022-11-04T08:10:25.442Z,3.25
2022-11-04T08:12:54.651Z,3.60
2022-11-04T08:15:23.818Z,3.48
2022-11-04T08:17:53.993Z,3.48
2022-11-04T08:20:26.035Z,3.52
2022-11-04T08:22:58.212Z,3.25
2022-11-04T08:25:28.965Z,3.46
2022-11-04T08:28:01.346Z,3.26
2022-11-04T08:30:30.582Z,2.90
2022-11-04T08:33:00.200Z,3.38
2022-11-04T08:35:29.404Z,2.76
2022-11-04T08:38:03.380Z,2.75
2022-11-04T08:40:34.863Z,2.78
2022-11-04T08:43:08.913Z,2.60
2022-11-04T08:45:44.090Z,3.10
2022-11-04T08:48:18.728Z,3.09
2022-11-04T08:51:22.437Z,3.03
2022-11-04T08:53:55.290Z,2.79
2022-11-04T08:56:28.203Z,2.36
2022-11-04T08:59:01.029Z,2.70
2022-11-04T09:01:35.595Z,3.04
2022-11-04T09:04:05.779Z,3.18
2022-11-04T09:06:37.924Z,3.33
2022-11-04T09:09:08.368Z,3.50
2022-11-04T09:11:41.291Z,3.60
2022-11-04T09:14:11.561Z,3.54
2022-11-04T09:16:41.927Z,3.44
2022-11-04T09:19:11.390Z,3.25
2022-11-04T09:21:40.484Z,3.04
2022-11-04T09:24:12.681Z,2.43
2022-11-04T09:26:45.161Z,2.72
2022-11-04T09:29:15.840Z,2.43
2022-11-04T09:31:50.435Z,2.47
2022-11-04T09:34:19.759Z,2.36
2022-11-04T09:36:48.809Z,2.15
2022-11-04T09:39:23.738Z,2.20
2022-11-04T09:42:11.485Z,2.12
2022-11-04T09:45:20.047Z,2.30
2022-11-04T09:47:42.801Z,2.30
2022-11-04T09:50:23.492Z,2.11
2022-11-04T09:53:02.136Z,1.84
2022-11-04T09:55:37.008Z,1.38
2022-11-04T09:58:10.749Z,1.38
2022-11-04T10:00:41.497Z,1.22
2022-11-04T10:03:25.980Z,0.95
2022-11-04T10:06:08.965Z,0.73
2022-11-04T10:09:04.520Z,0.84
2022-11-04T10:11:44.761Z,0.48
2022-11-04T10:14:43.699Z,0.73
2022-11-04T10:17:25.781Z,0.61
2022-11-04T10:20:16.119Z,0.63
2022-11-04T10:22:57.895Z,0.72
2022-11-04T10:25:41.125Z,0.54
2022-11-04T10:28:15.842Z,0.75
2022-11-04T10:30:52.264Z,0.82
2022-11-04T10:33:31.020Z,0.80
2022-11-04T10:36:07.693Z,0.26
2022-11-04T10:38:41.389Z,0.79
2022-11-04T10:41:36.032Z,0.82
2022-11-04T10:44:08.403Z,0.70
2022-11-04T10:46:55.702Z,0.75
2022-11-04T10:50:00.134Z,0.83
2022-11-04T10:52:35.368Z,0.81
2022-11-04T10:55:04.503Z,0.38
2022-11-04T10:57:33.592Z,0.54
2022-11-04T11:00:06.766Z,0.77
2022-11-04T11:02:48.499Z,0.67
2022-11-04T11:05:32.865Z,0.72
2022-11-04T11:08:02.019Z,0.73
2022-11-04T11:10:34.715Z,0.53
2022-11-04T11:13:07.482Z,0.59
2022-11-04T11:15:38.545Z,0.72
2022-11-04T11:18:26.259Z,0.17
2022-11-04T11:21:16.468Z,0.67
2022-11-04T11:23:51.521Z,0.58
2022-11-04T11:26:22.898Z,0.63
2022-11-04T11:28:59.158Z,0.36
2022-11-04T11:31:37.341Z,0.26
2022-11-04T11:34:17.257Z,0.64
2022-11-04T11:36:48.569Z,0.50
2022-11-04T11:39:22.396Z,0.47
2022-11-04T11:41:57.678Z,0.56
2022-11-04T11:44:39.085Z,0.62
2022-11-04T11:47:13.128Z,0.34
2022-11-04T11:49:43.874Z,0.40
2022-11-04T11:52:34.352Z,0.52
2022-11-04T11:55:09.259Z,0.56
2022-11-04T12:00:48.704Z,0.58
2022-11-04T12:09:54.382Z,0.34
2022-11-04T12:12:42.348Z,0.25
2022-11-04T12:15:28.131Z,0.04
2022-11-04T12:18:04.936Z,0.02
2022-11-04T12:20:52.214Z,-0.06
2022-11-04T12:23:32.509Z,-0.29
2022-11-04T12:26:17.974Z,-0.05
2022-11-04T12:29:01.404Z,-0.40
2022-11-04T12:31:42.821Z,-0.02
2022-11-04T12:34:22.874Z,0.04
2022-11-04T12:37:07.905Z,-0.36
2022-11-04T12:39:50.893Z,-0.43
2022-11-04T12:42:32.439Z,0.05
2022-11-04T12:45:13.377Z,0.04
2022-11-04T12:47:45.536Z,0.08
2022-11-04T12:50:41.410Z,-0.17
2022-11-04T12:53:43.199Z,0.00
2022-11-04T12:56:16.050Z,-0.08
2022-11-04T12:58:59.981Z,0.02
2022-11-04T13:01:35.631Z,-0.02
2022-11-04T13:04:12.127Z,-0.26
2022-11-04T13:06:44.728Z,-0.05
2022-11-04T13:09:19.933Z,-1.09
2022-11-04T13:11:55.652Z,-0.52
2022-11-04T13:14:32.691Z,-0.08
2022-11-04T13:17:12.008Z,-0.09
2022-11-04T13:19:52.181Z,-0.33
2022-11-04T13:22:25.377Z,-0.17
2022-11-04T13:25:04.175Z,-1.81
2022-11-04T13:27:49.099Z,-0.46
2022-11-04T13:30:26.135Z,-0.19
2022-11-04T13:33:01.721Z,-0.20
2022-11-04T13:35:39.321Z,-0.21
2022-11-04T13:38:16.045Z,-0.33
2022-11-04T13:40:54.459Z,-0.48
2022-11-04T13:43:42.140Z,-0.53
2022-11-04T13:46:36.761Z,-0.35
2022-11-04T13:49:24.064Z,-0.33
2022-11-04T13:52:08.361Z,-0.27
2022-11-04T13:54:42.512Z,-0.56
2022-11-04T13:57:15.011Z,-0.38
2022-11-04T14:00:11.096Z,-0.44
2022-11-04T14:02:52.225Z,-0.30
2022-11-04T14:05:59.272Z,-0.20
2022-11-04T14:08:29.256Z,-0.27
2022-11-04T14:11:06.019Z,-0.22
2022-11-04T14:13:51.831Z,-0.36
2022-11-04T14:16:51.280Z,-0.22
2022-11-04T14:20:02.096Z,-0.18
2022-11-04T14:22:40.020Z,-0.24
2022-11-04T14:25:30.926Z,-0.17
2022-11-04T14:28:02.169Z,-1.04
2022-11-04T14:30:38.646Z,-0.38
2022-11-04T14:33:34.329Z,-0.52
2022-11-04T14:36:40.409Z,-0.28
2022-11-04T14:39:30.128Z,-0.34
2022-11-04T14:42:02.180Z,-0.38
2022-11-04T14:44:34.273Z,-0.41
2022-11-04T14:47:17.299Z,-0.53
2022-11-04T14:49:52.666Z,-0.48
2022-11-04T14:52:28.577Z,-0.59
2022-11-04T14:55:04.312Z,-0.60
2022-11-04T14:57:39.044Z,-0.77
2022-11-04T15:00:39.479Z,-0.63
2022-11-04T15:03:57.615Z,-0.92
2022-11-04T15:06:09.463Z,-0.88
2022-11-04T15:08:40.109Z,-0.96
2022-11-04T15:11:17.407Z,-0.87
2022-11-04T15:13:48.327Z,-0.85
2022-11-04T15:16:20.898Z,-0.82
2022-11-04T15:18:51.714Z,-0.82
2022-11-04T15:21:22.419Z,-0.95
2022-11-04T15:23:53.233Z,-0.83
2022-11-04T15:26:29.433Z,-0.87
2022-11-04T15:29:06.942Z,-1.16
2022-11-04T15:31:37.998Z,-0.84
2022-11-04T15:34:14.680Z,-0.86
2022-11-04T15:36:46.420Z,-0.89
2022-11-04T15:39:21.886Z,-0.93
2022-11-04T15:42:20.302Z,-0.93
2022-11-04T15:44:56.739Z,-0.97
2022-11-04T15:47:32.642Z,-1.12
2022-11-04T15:50:04.663Z,-1.01
2022-11-04T15:52:35.643Z,-1.00
2022-11-04T15:55:08.564Z,-1.03
2022-11-04T15:57:41.315Z,-1.41
2022-11-04T16:00:26.375Z,-1.02
2022-11-04T16:02:58.098Z,-1.23
2022-11-04T16:05:29.737Z,-1.01
2022-11-04T16:08:23.880Z,-1.05
2022-11-04T16:11:09.733Z,-1.00
2022-11-04T16:13:42.188Z,-1.11
2022-11-04T16:16:22.860Z,-1.02
2022-11-04T16:18:55.590Z,-1.12
2022-11-04T16:21:31.298Z,-1.07
2022-11-04T16:24:04.016Z,-1.04
2022-11-04T16:26:40.963Z,-1.18
2022-11-04T16:29:19.273Z,-1.23
2022-11-04T16:32:17.660Z,-1.03
2022-11-04T16:34:50.945Z,-1.04
2022-11-04T16:37:20.188Z,-1.13
2022-11-04T16:39:53.209Z,-1.08
2022-11-04T16:42:23.934Z,-1.36
2022-11-04T16:45:09.495Z,-1.20
2022-11-04T16:47:42.556Z,-1.55
2022-11-04T16:50:18.689Z,-2.05
2022-11-04T16:52:48.310Z,-1.41
2022-11-04T16:55:19.809Z,-1.95
2022-11-04T16:57:53.058Z,-1.61
2022-11-04T17:00:26.809Z,-1.54
2022-11-04T17:02:56.740Z,-1.73
2022-11-04T17:05:26.173Z,-2.19
2022-11-04T17:07:58.873Z,-1.67
2022-11-04T17:10:37.303Z,-1.71
2022-11-04T17:13:06.862Z,-1.70
2022-11-04T17:15:36.228Z,-1.70
2022-11-04T17:18:05.621Z,-1.71
2022-11-04T17:20:35.335Z,-2.71
2022-11-04T17:23:04.609Z,-3.11
2022-11-04T17:25:35.215Z,-2.59
2022-11-04T17:28:04.550Z,-2.37
2022-11-04T17:30:33.877Z,-1.77
2022-11-04T17:33:06.877Z,-2.24
2022-11-04T17:35:39.273Z,-2.98
2022-11-04T17:38:08.377Z,-3.05
2022-11-04T17:40:58.981Z,-3.10
2022-11-04T17:44:00.085Z,-2.22
2022-11-04T17:46:45.251Z,-2.41
2022-11-04T17:49:16.649Z,-2.23
2022-11-04T17:51:47.560Z,-2.02
2022-11-04T17:54:17.530Z,-2.30
2022-11-04T17:56:48.474Z,-2.28
2022-11-04T17:59:18.866Z,-2.03
2022-11-04T18:01:48.186Z,-2.53
2022-11-04T18:04:19.853Z,-2.64
2022-11-04T18:06:49.047Z,-2.09
2022-11-04T18:09:18.714Z,-2.60
2022-11-04T18:12:06.407Z,-2.64
2022-11-04T18:14:35.877Z,-2.12
2022-11-04T18:17:06.063Z,-2.34
2022-11-04T18:19:35.176Z,-2.17
2022-11-04T18:22:04.407Z,-2.40
2022-11-04T18:24:34.094Z,-2.19
2022-11-04T18:27:04.777Z,-2.35
2022-11-04T18:29:33.887Z,-2.91
2022-11-04T18:32:03.109Z,-2.26
2022-11-04T18:34:32.265Z,-3.04
2022-11-04T18:37:01.376Z,-2.32
2022-11-04T18:39:30.515Z,-2.82
2022-11-04T18:41:59.637Z,-3.31
2022-11-04T18:44:30.239Z,-2.44
2022-11-04T18:46:59.343Z,-3.33
2022-11-04T18:49:28.511Z,-2.54
2022-11-04T18:51:57.767Z,-3.10
2022-11-04T18:54:26.862Z,-2.87
2022-11-04T18:56:55.967Z,-3.30
2022-11-04T18:59:25.099Z,-3.37
2022-11-04T19:01:55.821Z,-3.77
2022-11-04T19:04:24.948Z,-3.27
2022-11-04T19:06:53.995Z,-3.08
2022-11-04T19:12:29.510Z,-2.89
2022-11-04T19:14:58.613Z,-3.19
2022-11-04T19:17:29.281Z,-3.59
2022-11-04T19:19:58.600Z,-2.96
2022-11-04T19:22:27.728Z,-3.24
2022-11-04T19:24:56.864Z,-3.00
2022-11-04T19:27:25.994Z,-3.75
2022-11-04T19:29:55.535Z,-3.70
2022-11-04T19:32:24.694Z,-3.99
2022-11-04T19:34:55.318Z,-3.81
2022-11-04T19:37:24.708Z,-3.16
2022-11-04T19:39:53.794Z,-3.13
2022-11-04T19:42:39.896Z,-3.97
2022-11-04T19:45:09.981Z,-3.82
2022-11-04T19:47:39.161Z,-3.78
2022-11-04T19:50:10.466Z,-4.03
2022-11-04T19:52:39.569Z,-3.84
2022-11-04T19:55:09.831Z,-3.27
2022-11-04T19:57:39.212Z,-3.92
2022-11-04T20:00:09.585Z,-3.37
2022-11-04T20:02:38.773Z,-4.11
2022-11-04T20:05:10.080Z,-4.21
2022-11-04T20:07:39.850Z,-3.41
2022-11-04T20:10:10.074Z,-3.43
2022-11-04T20:12:56.086Z,-3.45
2022-11-04T20:15:26.919Z,-4.27
2022-11-04T20:17:56.079Z,-3.72
2022-11-04T20:20:26.749Z,-4.59
2022-11-04T20:22:55.913Z,-3.54
2022-11-04T20:25:25.117Z,-3.84
2022-11-04T20:27:54.341Z,-4.00
2022-11-04T20:30:23.488Z,-4.32
2022-11-04T20:32:52.599Z,-4.62
2022-11-04T20:35:22.129Z,-4.47
2022-11-04T20:37:52.748Z,-4.36
2022-11-04T20:40:22.028Z,-4.85
2022-11-04T20:42:51.245Z,-3.84
2022-11-04T20:45:21.615Z,-3.89
2022-11-04T20:47:50.717Z,-4.82
2022-11-04T20:50:19.906Z,-4.61
2022-11-04T20:52:49.026Z,-4.32
2022-11-04T20:55:19.795Z,-5.05
2022-11-04T20:57:48.987Z,-4.35
2022-11-04T21:00:18.536Z,-4.31
2022-11-04T21:02:47.701Z,-4.19
2022-11-04T21:05:16.927Z,-4.21
2022-11-04T21:07:46.021Z,-4.51
2022-11-04T21:10:15.089Z,-5.06
2022-11-04T21:12:46.325Z,-4.27
2022-11-04T21:15:35.826Z,-5.15
2022-11-04T21:18:04.966Z,-4.61
2022-11-04T21:20:38.074Z,-4.37
2022-11-04T21:23:07.264Z,-5.01
2022-11-04T21:25:41.496Z,-5.36
2022-11-04T21:28:12.365Z,-4.41
2022-11-04T21:30:43.966Z,-4.41
2022-11-04T21:33:13.626Z,-4.39
2022-11-04T21:35:44.571Z,-4.45
2022-11-04T21:38:16.873Z,-5.20
2022-11-04T21:40:46.586Z,-5.38
2022-11-04T21:43:17.177Z,-4.41
2022-11-04T21:45:46.265Z,-4.69
2022-11-04T21:48:15.348Z,-4.45
2022-11-04T21:50:44.894Z,-4.75
2022-11-04T21:53:14.000Z,-4.78
2022-11-04T21:55:44.146Z,-4.58
2022-11-04T21:58:13.556Z,-5.38
2022-11-04T22:00:44.370Z,-5.23
2022-11-04T22:03:13.670Z,-5.32
2022-11-04T22:05:42.832Z,-5.34
2022-11-04T22:08:21.552Z,-4.97
2022-11-04T22:10:51.107Z,-4.72
2022-11-04T22:13:20.186Z,-5.24
2022-11-04T22:16:00.186Z,-5.65
2022-11-04T22:18:30.458Z,-5.01
2022-11-04T22:21:02.749Z,-4.80
2022-11-04T22:23:32.345Z,-5.48
2022-11-04T22:26:02.469Z,-4.81
2022-11-04T22:28:32.337Z,-5.35
2022-11-04T22:31:09.337Z,-5.64
2022-11-04T22:33:39.516Z,-4.85
2022-11-04T22:36:09.875Z,-5.13
2022-11-04T22:38:39.819Z,-4.88
2022-11-04T22:41:10.462Z,-4.89
2022-11-04T22:43:39.603Z,-4.89
2022-11-04T22:46:15.288Z,-5.53
2022-11-04T22:48:44.448Z,-4.91
2022-11-04T22:51:14.068Z,-5.09
2022-11-04T22:53:44.303Z,-5.25
2022-11-04T22:56:15.885Z,-5.27
2022-11-04T22:58:45.270Z,-6.00
2022-11-04T23:01:17.307Z,-5.25
2022-11-04T23:03:46.624Z,-5.52
2022-11-04T23:06:18.408Z,-5.77
2022-11-04T23:08:47.497Z,-5.06
2022-11-04T23:11:36.085Z,-6.01
2022-11-04T23:14:22.181Z,-5.35
2022-11-04T23:17:10.696Z,-4.97
2022-11-04T23:19:40.475Z,-5.32
2022-11-04T23:22:27.303Z,-5.05
2022-11-04T23:25:10.183Z,-5.09
2022-11-04T23:27:58.796Z,-5.13
2022-11-04T23:30:30.025Z,-6.00
2022-11-04T23:33:02.678Z,-5.82
2022-11-04T23:35:51.790Z,-6.03
2022-11-04T23:38:21.570Z,-5.72
2022-11-04T23:41:05.926Z,-5.29
2022-11-04T23:43:35.344Z,-5.71
2022-11-04T23:46:21.838Z,-5.91
2022-11-04T23:49:09.468Z,-5.52
2022-11-04T23:51:55.434Z,-6.20
2022-11-04T23:54:41.382Z,-6.14
2022-11-04T23:57:32.856Z,-6.13
